createdAt,value
2018-11-26T00:00:44.066Z,65.03
2018-11-26T00:03:12.119Z,73.63
2018-11-26T00:05:40.008Z,68.90
2018-11-26T00:08:08.415Z,67.17
2018-11-26T00:10:41.858Z,66.90
2018-11-26T00:13:09.298Z,69.23
2018-11-26T00:15:36.812Z,74.73
2018-11-26T00:18:04.298Z,66.80
2018-11-26T00:20:31.768Z,70.57
2018-11-26T00:22:59.659Z,68.00
2018-11-26T00:25:27.241Z,69.23
2018-11-26T00:27:54.788Z,74.93
2018-11-26T00:30:26.193Z,65.17
2018-11-26T00:32:54.535Z,66.33
2018-11-26T00:35:22.109Z,70.83
2018-11-26T00:37:50.171Z,62.43
2018-11-26T00:40:17.659Z,70.47
2018-11-26T00:42:45.303Z,64.67
2018-11-26T00:45:12.800Z,66.27
2018-11-26T00:47:40.360Z,70.83
2018-11-26T00:50:08.465Z,71.80
2018-11-26T00:52:35.997Z,65.83
2018-11-26T00:55:03.476Z,66.80
2018-11-26T00:57:31.164Z,63.33
2018-11-26T00:59:58.825Z,56.20
2018-11-26T01:02:26.461Z,70.10
2018-11-26T01:04:54.814Z,65.47
2018-11-26T01:07:22.239Z,66.73
2018-11-26T01:09:49.757Z,60.00
2018-11-26T01:12:17.277Z,65.57
2018-11-26T01:14:44.810Z,62.67
2018-11-26T01:17:12.457Z,65.90
2018-11-26T01:19:40.797Z,59.53
2018-11-26T01:22:08.307Z,58.83
2018-11-26T01:24:35.731Z,61.70
2018-11-26T01:27:03.331Z,61.17
2018-11-26T01:29:30.759Z,63.03
2018-11-26T01:31:58.222Z,61.07
2018-11-26T01:34:25.696Z,56.93
2018-11-26T01:36:53.226Z,57.30
2018-11-26T01:39:20.677Z,62.00
2018-11-26T01:41:48.072Z,62.63
2018-11-26T01:44:16.256Z,59.90
2018-11-26T01:46:44.898Z,61.27
2018-11-26T01:49:12.964Z,59.37
2018-11-26T01:51:40.509Z,56.70
2018-11-26T01:54:08.076Z,69.23
2018-11-26T01:56:35.526Z,61.27
2018-11-26T01:59:03.064Z,55.50
2018-11-26T02:01:30.635Z,60.00
2018-11-26T02:03:58.114Z,62.13
2018-11-26T02:06:25.600Z,63.30
2018-11-26T02:08:53.107Z,58.87
2018-11-26T02:11:20.529Z,65.37
2018-11-26T02:13:48.073Z,61.27
2018-11-26T02:16:15.636Z,56.90
2018-11-26T02:18:43.181Z,55.63
2018-11-26T02:21:10.930Z,60.47
2018-11-26T02:23:38.400Z,57.27
2018-11-26T02:26:05.947Z,66.27
2018-11-26T02:28:33.450Z,56.57
2018-11-26T02:31:00.951Z,59.67
2018-11-26T02:33:28.345Z,66.07
2018-11-26T02:35:55.821Z,59.73
2018-11-26T02:38:23.314Z,58.33
2018-11-26T02:40:50.860Z,58.53
2018-11-26T02:43:18.383Z,59.40
2018-11-26T02:45:45.922Z,60.93
2018-11-26T02:48:13.539Z,62.23
2018-11-26T02:50:41.082Z,57.67
2018-11-26T02:53:08.652Z,64.30
2018-11-26T02:55:36.220Z,60.30
2018-11-26T02:58:03.696Z,59.30
2018-11-26T03:00:31.161Z,55.57
2018-11-26T03:02:58.726Z,66.63
2018-11-26T03:05:28.241Z,56.50
2018-11-26T03:07:55.683Z,62.70
2018-11-26T03:10:23.272Z,55.77
2018-11-26T03:12:50.908Z,57.33
2018-11-26T03:15:18.491Z,63.80
2018-11-26T03:17:46.091Z,60.63
2018-11-26T03:20:13.589Z,59.90
2018-11-26T03:22:41.122Z,62.07
2018-11-26T03:25:09.352Z,61.27
2018-11-26T03:27:36.961Z,61.53
2018-11-26T03:30:05.658Z,61.77
2018-11-26T03:32:33.177Z,60.53
2018-11-26T03:35:00.690Z,60.90
2018-11-26T03:37:28.360Z,62.87
2018-11-26T03:39:55.808Z,60.27
2018-11-26T03:42:23.867Z,56.87
2018-11-26T03:44:51.478Z,59.03
2018-11-26T03:47:19.154Z,62.33
2018-11-26T03:49:46.826Z,60.53
2018-11-26T03:52:14.482Z,61.00
2018-11-26T03:54:41.992Z,57.63
2018-11-26T03:57:09.512Z,58.70
2018-11-26T03:59:37.037Z,59.23
2018-11-26T04:02:04.646Z,65.70
2018-11-26T04:04:32.142Z,55.00
2018-11-26T04:06:59.609Z,66.17
2018-11-26T04:09:27.091Z,62.50
2018-11-26T04:11:54.696Z,59.87
2018-11-26T04:14:22.369Z,67.13
2018-11-26T04:16:49.954Z,62.67
2018-11-26T04:19:17.484Z,58.87
2018-11-26T04:21:45.007Z,64.10
2018-11-26T04:24:12.589Z,58.83
2018-11-26T04:26:40.075Z,59.83
2018-11-26T04:29:07.547Z,60.00
2018-11-26T04:31:35.048Z,62.70
2018-11-26T04:34:02.502Z,66.57
2018-11-26T04:36:29.973Z,66.07
2018-11-26T04:38:57.518Z,60.20
2018-11-26T04:41:24.984Z,62.90
2018-11-26T04:43:52.438Z,58.23
2018-11-26T04:46:20.474Z,62.73
2018-11-26T04:48:48.020Z,59.90
2018-11-26T04:51:16.102Z,69.20
2018-11-26T04:53:43.563Z,65.60
2018-11-26T04:56:11.079Z,62.87
2018-11-26T04:58:38.655Z,70.43
2018-11-26T05:01:06.128Z,60.67
2018-11-26T05:03:33.592Z,66.17
2018-11-26T05:06:01.055Z,65.40
2018-11-26T05:08:28.556Z,59.93
2018-11-26T05:10:56.170Z,61.23
2018-11-26T05:13:23.667Z,62.10
2018-11-26T05:15:51.221Z,57.73
2018-11-26T05:18:18.695Z,62.03
2018-11-26T05:20:46.151Z,65.10
2018-11-26T05:23:13.758Z,63.07
2018-11-26T05:25:41.165Z,63.50
2018-11-26T05:28:08.725Z,67.73
2018-11-26T05:30:36.154Z,68.77
2018-11-26T05:33:03.665Z,77.53
2018-11-26T05:35:31.208Z,65.67
2018-11-26T05:37:59.364Z,63.30
2018-11-26T05:40:26.841Z,68.37
2018-11-26T05:42:54.398Z,64.07
2018-11-26T05:45:21.893Z,65.60
2018-11-26T05:47:49.392Z,68.73
2018-11-26T05:50:16.935Z,68.73
2018-11-26T05:52:44.497Z,61.23
2018-11-26T05:55:13.421Z,64.80
2018-11-26T05:57:40.896Z,69.47
2018-11-26T06:00:11.295Z,58.77
2018-11-26T06:02:38.868Z,60.13
2018-11-26T06:05:06.962Z,63.97
2018-11-26T06:07:35.091Z,58.77
2018-11-26T06:10:02.705Z,57.50
2018-11-26T06:12:30.522Z,58.07
2018-11-26T06:14:58.006Z,58.80
2018-11-26T06:17:25.455Z,65.23
2018-11-26T06:19:53.080Z,63.47
2018-11-26T06:22:20.660Z,62.40
2018-11-26T06:24:48.122Z,55.50
2018-11-26T06:27:16.339Z,58.90
2018-11-26T06:29:44.604Z,56.27
2018-11-26T06:32:12.248Z,60.30
2018-11-26T06:34:42.493Z,56.57
2018-11-26T06:37:07.206Z,59.70
2018-11-26T06:39:34.744Z,56.73
2018-11-26T06:42:02.234Z,55.37
2018-11-26T06:44:29.857Z,59.30
2018-11-26T06:46:57.282Z,56.67
2018-11-26T06:49:24.749Z,58.70
2018-11-26T06:51:52.253Z,57.53
2018-11-26T06:54:19.693Z,59.80
2018-11-26T06:56:47.146Z,58.40
2018-11-26T06:59:14.699Z,62.30
2018-11-26T07:01:42.261Z,58.23
2018-11-26T07:04:09.765Z,57.43
2018-11-26T07:06:37.321Z,56.33
2018-11-26T07:09:06.706Z,56.50
2018-11-26T07:11:34.166Z,61.60
2018-11-26T07:14:01.726Z,59.87
2018-11-26T07:16:29.241Z,57.80
2018-11-26T07:18:56.682Z,57.50
2018-11-26T07:21:24.129Z,58.00
2018-11-26T07:23:51.647Z,53.30
2018-11-26T07:26:19.126Z,55.37
2018-11-26T07:28:46.618Z,58.17
2018-11-26T07:31:14.120Z,51.57
2018-11-26T07:33:41.720Z,53.40
2018-11-26T07:36:11.427Z,51.30
2018-11-26T07:38:36.752Z,57.50
2018-11-26T07:41:04.179Z,58.77
2018-11-26T07:43:31.616Z,52.03
2018-11-26T07:45:59.108Z,51.53
2018-11-26T07:48:26.562Z,55.50
2018-11-26T07:50:53.988Z,57.33
2018-11-26T07:53:21.424Z,55.27
2018-11-26T07:55:48.828Z,53.80
2018-11-26T07:58:16.326Z,51.03
2018-11-26T08:00:43.737Z,53.03
2018-11-26T08:03:11.204Z,57.20
2018-11-26T08:05:38.669Z,52.17
2018-11-26T08:08:06.160Z,56.87
2018-11-26T08:10:33.715Z,54.37
2018-11-26T08:13:01.244Z,53.13
2018-11-26T08:15:29.053Z,51.20
2018-11-26T08:17:56.599Z,54.23
2018-11-26T08:20:24.139Z,55.83
2018-11-26T08:22:51.633Z,51.80
2018-11-26T08:25:20.752Z,51.00
2018-11-26T08:27:48.642Z,49.30
2018-11-26T08:30:17.533Z,52.20
2018-11-26T08:32:46.172Z,52.67
2018-11-26T08:35:14.329Z,47.30
2018-11-26T08:37:47.186Z,51.20
2018-11-26T08:40:24.998Z,52.73
2018-11-26T08:42:57.983Z,55.03
2018-11-26T08:45:30.878Z,49.17
2018-11-26T08:48:03.690Z,56.17
2018-11-26T08:50:31.287Z,50.87
2018-11-26T08:52:58.779Z,55.43
2018-11-26T08:55:26.318Z,51.63
2018-11-26T08:57:53.853Z,47.77
2018-11-26T09:00:21.451Z,54.13
2018-11-26T09:02:53.231Z,49.83
2018-11-26T09:05:24.268Z,49.27
2018-11-26T09:07:50.769Z,54.07
2018-11-26T09:10:18.408Z,54.73
2018-11-26T09:12:45.931Z,48.90
2018-11-26T09:15:13.404Z,52.07
2018-11-26T09:17:41.129Z,49.90
2018-11-26T09:20:10.182Z,52.13
2018-11-26T09:22:37.657Z,51.60
2018-11-26T09:25:07.042Z,53.37
2018-11-26T09:27:34.521Z,48.23
2018-11-26T09:30:01.963Z,49.23
2018-11-26T09:32:29.528Z,56.10
2018-11-26T09:34:57.570Z,48.37
2018-11-26T09:37:25.032Z,49.07
2018-11-26T09:39:52.546Z,53.40
2018-11-26T09:42:20.923Z,48.17
2018-11-26T09:44:48.412Z,50.87
2018-11-26T09:47:15.926Z,54.70
2018-11-26T09:49:43.352Z,50.60
2018-11-26T09:52:10.779Z,51.97
2018-11-26T09:54:38.272Z,55.50
2018-11-26T09:57:06.304Z,51.67
2018-11-26T09:59:33.938Z,52.40
2018-11-26T10:02:01.655Z,46.07
2018-11-26T10:04:29.222Z,47.30
2018-11-26T10:06:56.759Z,47.60
2018-11-26T10:09:24.448Z,50.00
2018-11-26T10:11:52.048Z,48.70
2018-11-26T10:14:19.504Z,45.67
2018-11-26T10:16:47.169Z,52.20
2018-11-26T10:19:14.703Z,49.70
2018-11-26T10:21:42.484Z,47.70
2018-11-26T10:24:10.046Z,53.03
2018-11-26T10:26:37.561Z,49.03
2018-11-26T10:29:05.017Z,50.77
2018-11-26T10:31:32.517Z,53.50
2018-11-26T10:34:00.106Z,43.70
2018-11-26T10:36:27.547Z,50.37
2018-11-26T10:38:54.976Z,45.63
2018-11-26T10:41:22.495Z,41.97
2018-11-26T10:43:50.096Z,45.60
2018-11-26T10:46:17.629Z,47.20
2018-11-26T10:48:45.145Z,44.87
2018-11-26T10:51:12.657Z,41.23
2018-11-26T10:53:40.604Z,48.20
2018-11-26T10:56:08.251Z,43.93
2018-11-26T10:58:35.794Z,45.00
2018-11-26T11:01:07.597Z,44.33
2018-11-26T11:03:35.168Z,41.13
2018-11-26T11:06:02.718Z,40.47
2018-11-26T11:08:30.224Z,38.07
2018-11-26T11:10:57.697Z,41.57
2018-11-26T11:13:25.296Z,41.40
2018-11-26T11:15:53.225Z,43.57
2018-11-26T11:18:20.782Z,40.27
2018-11-26T11:20:48.360Z,43.87
2018-11-26T11:23:15.925Z,38.87
2018-11-26T11:25:43.381Z,38.60
2018-11-26T11:28:10.930Z,41.33
2018-11-26T11:30:38.424Z,39.77
2018-11-26T11:35:37.718Z,36.23
2018-11-26T11:38:05.201Z,42.37
2018-11-26T11:40:32.701Z,38.20
2018-11-26T11:43:00.502Z,41.23
2018-11-26T11:46:08.887Z,39.37
2018-11-26T11:48:36.400Z,38.03
2018-11-26T11:51:04.048Z,43.73
2018-11-26T11:53:31.665Z,41.77
2018-11-26T11:55:59.251Z,40.77
2018-11-26T11:58:26.845Z,39.63
2018-11-26T12:00:54.448Z,44.07
2018-11-26T12:03:21.906Z,40.27
2018-11-26T12:05:49.489Z,41.10
2018-11-26T12:08:17.001Z,39.50
2018-11-26T12:10:44.554Z,41.90
2018-11-26T12:13:12.676Z,39.30
2018-11-26T12:15:40.945Z,43.80
2018-11-26T12:18:08.923Z,42.03
2018-11-26T12:20:37.131Z,40.40
2018-11-26T12:23:04.625Z,41.80
2018-11-26T12:25:32.359Z,44.17
2018-11-26T12:27:59.927Z,40.83
2018-11-26T12:30:28.494Z,39.67
2018-11-26T12:32:55.956Z,41.97
2018-11-26T12:35:23.767Z,39.73
2018-11-26T12:37:51.571Z,39.30
2018-11-26T12:40:20.456Z,36.87
2018-11-26T12:42:48.499Z,41.93
2018-11-26T12:45:17.542Z,42.70
2018-11-26T12:47:45.944Z,40.57
2018-11-26T12:50:13.445Z,40.10
2018-11-26T12:52:40.939Z,40.53
2018-11-26T12:55:09.472Z,40.17
2018-11-26T12:57:37.130Z,42.30
2018-11-26T13:00:05.778Z,45.27
2018-11-26T13:02:33.396Z,44.40
2018-11-26T13:05:00.857Z,43.50
2018-11-26T13:07:28.501Z,41.20
2018-11-26T13:09:56.075Z,42.37
2018-11-26T13:12:23.712Z,37.43
2018-11-26T13:14:51.202Z,39.10
2018-11-26T13:17:18.586Z,43.20
2018-11-26T13:19:46.082Z,40.63
2018-11-26T13:22:13.522Z,41.87
2018-11-26T13:24:41.009Z,39.63
2018-11-26T13:27:08.592Z,39.90
2018-11-26T13:29:35.985Z,39.10
2018-11-26T13:32:03.417Z,39.47
2018-11-26T13:34:30.919Z,40.67
2018-11-26T13:36:58.338Z,39.27
2018-11-26T13:39:25.815Z,41.33
2018-11-26T13:41:53.306Z,40.37
2018-11-26T13:44:20.785Z,41.23
2018-11-26T13:46:48.287Z,43.27
2018-11-26T13:49:15.848Z,37.93
2018-11-26T13:51:43.397Z,39.83
2018-11-26T13:54:10.884Z,39.30
2018-11-26T13:56:38.352Z,36.33
2018-11-26T13:59:06.166Z,39.20
2018-11-26T14:01:33.761Z,38.07
2018-11-26T14:04:01.196Z,38.37
2018-11-26T14:06:29.358Z,40.97
2018-11-26T14:08:56.923Z,38.03
2018-11-26T14:11:32.492Z,42.73
2018-11-26T14:14:06.720Z,41.40
2018-11-26T14:16:34.152Z,38.60
2018-11-26T14:19:01.637Z,38.87
2018-11-26T14:21:29.172Z,38.77
2018-11-26T14:23:56.690Z,42.13
2018-11-26T14:26:24.248Z,40.73
2018-11-26T14:28:51.833Z,40.67
2018-11-26T14:31:19.522Z,36.43
2018-11-26T14:33:48.303Z,42.03
2018-11-26T14:36:15.790Z,42.70
2018-11-26T14:38:43.251Z,47.23
2018-11-26T14:41:10.878Z,42.67
2018-11-26T14:43:38.397Z,42.20
2018-11-26T14:46:05.970Z,39.73
2018-11-26T14:48:33.549Z,40.13
2018-11-26T14:51:01.065Z,36.97
2018-11-26T14:53:28.483Z,38.60
2018-11-26T14:55:56.106Z,41.30
2018-11-26T14:58:23.742Z,41.67
2018-11-26T15:00:51.602Z,44.53
2018-11-26T15:03:19.200Z,44.37
2018-11-26T15:05:46.651Z,41.80
2018-11-26T15:08:14.186Z,42.10
2018-11-26T15:10:41.713Z,47.90
2018-11-26T15:13:09.259Z,45.33
2018-11-26T15:15:36.717Z,43.87
2018-11-26T15:18:04.246Z,44.80
2018-11-26T15:20:32.394Z,46.10
2018-11-26T15:23:00.249Z,46.70
2018-11-26T15:25:28.427Z,43.13
2018-11-26T15:27:56.678Z,45.80
2018-11-26T15:30:24.357Z,44.53
2018-11-26T15:32:51.916Z,52.10
2018-11-26T15:35:20.127Z,45.30
2018-11-26T15:37:47.638Z,44.70
2018-11-26T15:40:15.461Z,49.20
2018-11-26T15:42:42.961Z,42.03
2018-11-26T15:45:13.031Z,44.37
2018-11-26T15:47:40.574Z,49.57
2018-11-26T15:50:08.486Z,46.57
2018-11-26T15:52:35.995Z,50.37
2018-11-26T15:55:04.231Z,46.43
2018-11-26T15:57:31.734Z,43.40
2018-11-26T15:59:59.270Z,44.87
2018-11-26T16:02:26.954Z,42.60
2018-11-26T16:04:54.430Z,44.60
2018-11-26T16:07:22.056Z,50.20
2018-11-26T16:09:49.589Z,45.07
2018-11-26T16:12:18.054Z,43.63
2018-11-26T16:14:45.497Z,44.27
2018-11-26T16:17:12.935Z,48.37
2018-11-26T16:19:40.426Z,49.43
2018-11-26T16:22:07.795Z,48.67
2018-11-26T16:24:35.262Z,48.03
2018-11-26T16:27:02.720Z,50.87
2018-11-26T16:29:30.153Z,49.63
2018-11-26T16:31:57.795Z,44.57
2018-11-26T16:34:25.402Z,51.10
2018-11-26T16:36:52.976Z,47.03
2018-11-26T16:39:20.527Z,50.70
2018-11-26T16:41:47.989Z,45.53
2018-11-26T16:44:15.833Z,46.60
2018-11-26T16:46:43.267Z,49.70
2018-11-26T16:49:10.760Z,48.50
2018-11-26T16:51:38.393Z,44.73
2018-11-26T16:54:06.006Z,43.60
2018-11-26T16:56:33.691Z,48.67
2018-11-26T16:59:01.133Z,43.13
2018-11-26T17:01:28.753Z,41.87
2018-11-26T17:03:56.247Z,41.47
2018-11-26T17:06:23.775Z,45.10
2018-11-26T17:08:51.916Z,40.90
2018-11-26T17:11:19.361Z,40.53
2018-11-26T17:13:46.841Z,41.13
2018-11-26T17:16:14.291Z,38.10
2018-11-26T17:18:41.909Z,41.97
2018-11-26T17:21:09.329Z,35.43
2018-11-26T17:23:37.073Z,38.90
2018-11-26T17:26:04.657Z,36.30
2018-11-26T17:28:32.127Z,36.97
2018-11-26T17:31:00.492Z,36.50
2018-11-26T17:33:27.961Z,35.67
2018-11-26T17:35:55.611Z,33.83
2018-11-26T17:38:23.245Z,35.70
2018-11-26T17:40:50.681Z,35.57
2018-11-26T17:43:18.315Z,34.43
2018-11-26T17:45:46.947Z,36.40
2018-11-26T17:48:14.382Z,36.27
2018-11-26T17:50:43.451Z,34.37
2018-11-26T17:53:12.940Z,36.77
2018-11-26T17:55:45.863Z,35.33
2018-11-26T17:58:13.375Z,34.73
2018-11-26T18:00:40.895Z,36.97
2018-11-26T18:03:08.421Z,35.40
2018-11-26T18:05:35.869Z,39.63
2018-11-26T18:08:05.071Z,34.77
2018-11-26T18:10:32.594Z,36.40
2018-11-26T18:13:00.707Z,32.80
2018-11-26T18:15:28.180Z,32.60
2018-11-26T18:17:55.710Z,34.17
2018-11-26T18:20:23.256Z,34.43
2018-11-26T18:22:51.579Z,34.23
2018-11-26T18:25:19.445Z,34.30
2018-11-26T18:28:02.672Z,33.70
2018-11-26T18:30:31.041Z,36.60
2018-11-26T18:32:58.725Z,30.80
2018-11-26T18:35:26.245Z,33.17
2018-11-26T18:37:53.682Z,33.00
2018-11-26T18:40:21.233Z,34.77
2018-11-26T18:42:48.685Z,31.80
2018-11-26T18:45:16.882Z,32.23
2018-11-26T18:47:44.603Z,35.13
2018-11-26T18:50:14.297Z,32.63
2018-11-26T18:52:42.561Z,32.83
2018-11-26T18:55:10.321Z,31.83
2018-11-26T18:57:37.876Z,31.70
2018-11-26T19:00:08.675Z,35.40
2018-11-26T19:02:36.129Z,33.63
2018-11-26T19:05:03.561Z,35.57
2018-11-26T19:07:31.028Z,33.63
2018-11-26T19:09:58.549Z,32.77
2018-11-26T19:12:26.041Z,32.50
2018-11-26T19:14:55.956Z,34.57
2018-11-26T19:17:23.497Z,34.80
2018-11-26T19:19:51.019Z,34.13
2018-11-26T19:22:26.690Z,37.43
2018-11-26T19:24:54.367Z,33.57
2018-11-26T19:27:21.961Z,33.80
2018-11-26T19:29:49.488Z,38.77
2018-11-26T19:32:17.093Z,32.07
2018-11-26T19:34:44.625Z,31.47
2018-11-26T19:37:12.136Z,33.60
2018-11-26T19:39:39.604Z,35.60
2018-11-26T19:42:07.104Z,36.57
2018-11-26T19:44:34.641Z,35.43
2018-11-26T19:47:02.186Z,34.50
2018-11-26T19:49:29.674Z,32.93
2018-11-26T19:51:57.212Z,34.33
2018-11-26T19:54:24.689Z,34.83
2018-11-26T19:56:52.210Z,30.63
2018-11-26T19:59:23.593Z,33.83
2018-11-26T20:01:51.173Z,34.50
2018-11-26T20:04:21.770Z,37.50
2018-11-26T20:06:49.307Z,36.93
2018-11-26T20:09:17.421Z,36.40
2018-11-26T20:11:44.865Z,36.70
2018-11-26T20:14:12.328Z,36.10
2018-11-26T20:16:40.985Z,37.20
2018-11-26T20:19:08.408Z,35.17
2018-11-26T20:21:35.850Z,35.23
2018-11-26T20:24:08.725Z,38.50
2018-11-26T20:26:36.207Z,33.63
2018-11-26T20:29:03.751Z,37.03
2018-11-26T20:31:31.427Z,36.63
2018-11-26T20:33:58.921Z,36.37
2018-11-26T20:36:27.030Z,36.90
2018-11-26T20:38:54.904Z,36.23
2018-11-26T20:41:22.488Z,35.77
2018-11-26T20:43:49.986Z,36.73
2018-11-26T20:46:22.185Z,37.50
2018-11-26T20:48:49.751Z,36.73
2018-11-26T20:51:17.281Z,37.43
2018-11-26T20:53:44.862Z,40.37
2018-11-26T20:56:14.759Z,36.90
2018-11-26T20:58:42.537Z,36.53
2018-11-26T21:01:10.070Z,36.50
2018-11-26T21:03:37.550Z,38.17
2018-11-26T21:06:05.543Z,37.17
2018-11-26T21:08:33.177Z,37.63
2018-11-26T21:11:00.801Z,36.23
2018-11-26T21:13:28.455Z,38.87
2018-11-26T21:15:56.154Z,37.77
2018-11-26T21:18:23.776Z,36.83
2018-11-26T21:20:51.379Z,35.07
2018-11-26T21:23:19.702Z,34.67
2018-11-26T21:25:47.137Z,37.93
2018-11-26T21:28:14.650Z,35.50
2018-11-26T21:30:42.107Z,34.37
2018-11-26T21:33:10.818Z,33.47
2018-11-26T21:35:38.228Z,35.33
2018-11-26T21:38:06.446Z,35.83
2018-11-26T21:40:34.033Z,37.50
2018-11-26T21:43:06.070Z,33.57
2018-11-26T21:45:35.675Z,37.93
2018-11-26T21:48:03.065Z,32.73
2018-11-26T21:50:31.147Z,34.43
2018-11-26T21:52:58.561Z,32.90
2018-11-26T21:55:26.042Z,35.27
2018-11-26T21:57:53.538Z,33.97
2018-11-26T22:00:23.559Z,34.77
2018-11-26T22:02:51.323Z,33.10
2018-11-26T22:05:18.735Z,33.53
2018-11-26T22:07:46.196Z,34.77
2018-11-26T22:10:15.190Z,34.23
2018-11-26T22:12:43.293Z,35.07
2018-11-26T22:15:11.752Z,32.27
2018-11-26T22:17:39.413Z,35.77
2018-11-26T22:20:10.068Z,34.47
2018-11-26T22:22:37.506Z,34.50
2018-11-26T22:25:05.415Z,36.10
2018-11-26T22:27:33.045Z,31.90
2018-11-26T22:30:00.987Z,36.67
2018-11-26T22:32:28.427Z,31.93
2018-11-26T22:34:55.930Z,34.00
2018-11-26T22:37:23.415Z,36.93
2018-11-26T22:39:50.975Z,34.97
2018-11-26T22:42:18.432Z,31.10
2018-11-26T22:44:46.881Z,33.83
2018-11-26T22:47:14.377Z,31.83
2018-11-26T22:49:41.811Z,36.27
2018-11-26T22:52:09.482Z,35.90
2018-11-26T22:54:36.933Z,37.53
2018-11-26T22:57:04.370Z,34.50
2018-11-26T22:59:32.356Z,37.27
2018-11-26T23:02:00.301Z,36.33
2018-11-26T23:04:31.544Z,35.07
2018-11-26T23:07:00.846Z,37.73
2018-11-26T23:09:29.500Z,34.17
2018-11-26T23:11:56.985Z,32.23
2018-11-26T23:14:24.462Z,35.03
2018-11-26T23:16:51.944Z,32.60
2018-11-26T23:19:19.398Z,35.07
2018-11-26T23:21:58.085Z,34.90
2018-11-26T23:24:28.869Z,34.90
2018-11-26T23:26:56.327Z,37.10
2018-11-26T23:29:23.788Z,33.80
2018-11-26T23:31:51.889Z,34.07
2018-11-26T23:34:19.330Z,35.00
2018-11-26T23:36:46.759Z,33.10
2018-11-26T23:39:14.555Z,36.07
2018-11-26T23:41:42.128Z,34.50
2018-11-26T23:44:09.867Z,38.13
2018-11-26T23:46:37.438Z,35.20
2018-11-26T23:49:05.146Z,34.50
2018-11-26T23:51:33.272Z,37.93
2018-11-26T23:54:01.242Z,34.70
2018-11-26T23:56:28.948Z,39.03
2018-11-26T23:58:57.743Z,35.97
